sensor_id;sensor_type;location;lat;lon;timestamp;P1;durP1;ratioP1;P2;durP2;ratioP2
83443;SDS011;73374;41.170;-96.156;2024-03-23T00:57:18;6.13;;;3.40;;
83443;SDS011;73374;41.170;-96.156;2024-03-23T01:02:20;8.93;;;3.45;;
83443;SDS011;73374;41.170;-96.156;2024-03-23T01:07:21;5.38;;;3.45;;
83443;SDS011;73374;41.170;-96.156;2024-03-23T01:12:24;6.25;;;1.85;;
83443;SDS011;73374;41.170;-96.156;2024-03-23T01:17:26;8.43;;;3.70;;
83443;SDS011;73374;41.170;-96.156;2024-03-23T01:22:28;7.30;;;3.10;;
83443;SDS011;73374;41.170;-96.156;2024-03-23T01:27:31;5.85;;;3.50;;
83443;SDS011;73374;41.170;-96.156;2024-03-23T01:32:33;5.63;;;3.25;;
83443;SDS011;73374;41.170;-96.156;2024-03-23T01:37:34;4.32;;;3.08;;
83443;SDS011;73374;41.170;-96.156;2024-03-23T01:42:38;4.80;;;3.05;;
83443;SDS011;73374;41.170;-96.156;2024-03-23T01:47:39;5.63;;;2.65;;
83443;SDS011;73374;41.170;-96.156;2024-03-23T01:52:41;4.57;;;3.10;;
83443;SDS011;73374;41.170;-96.156;2024-03-23T01:57:44;4.55;;;2.53;;
83443;SDS011;73374;41.170;-96.156;2024-03-23T02:02:46;2.75;;;2.10;;
83443;SDS011;73374;41.170;-96.156;2024-03-23T02:07:48;8.32;;;4.32;;
83443;SDS011;73374;41.170;-96.156;2024-03-23T02:12:51;2.88;;;1.92;;
83443;SDS011;73374;41.170;-96.156;2024-03-23T02:27:56;4.40;;;2.03;;
83443;SDS011;73374;41.170;-96.156;2024-03-23T02:32:58;3.30;;;1.90;;
83443;SDS011;73374;41.170;-96.156;2024-03-23T02:38:01;2.28;;;1.58;;
83443;SDS011;73374;41.170;-96.156;2024-03-23T02:43:03;5.03;;;2.00;;
83443;SDS011;73374;41.170;-96.156;2024-03-23T02:48:05;1.55;;;0.93;;
83443;SDS011;73374;41.170;-96.156;2024-03-23T02:53:09;4.82;;;1.40;;
83443;SDS011;73374;41.170;-96.156;2024-03-23T03:03:12;1.58;;;1.10;;
83443;SDS011;73374;41.170;-96.156;2024-03-23T03:08:15;2.67;;;1.23;;
83443;SDS011;73374;41.170;-96.156;2024-03-23T03:13:16;2.83;;;1.48;;
83443;SDS011;73374;41.170;-96.156;2024-03-23T03:18:18;3.22;;;1.40;;
83443;SDS011;73374;41.170;-96.156;2024-03-23T03:23:21;2.03;;;1.20;;
83443;SDS011;73374;41.170;-96.156;2024-03-23T03:38:26;2.65;;;1.50;;
83443;SDS011;73374;41.170;-96.156;2024-03-23T03:48:29;3.42;;;1.70;;
83443;SDS011;73374;41.170;-96.156;2024-03-23T03:53:32;2.08;;;1.50;;
83443;SDS011;73374;41.170;-96.156;2024-03-23T03:58:34;1.95;;;1.00;;
83443;SDS011;73374;41.170;-96.156;2024-03-23T04:03:36;1.77;;;1.17;;
83443;SDS011;73374;41.170;-96.156;2024-03-23T04:08:39;2.65;;;1.35;;
83443;SDS011;73374;41.170;-96.156;2024-03-23T04:13:41;1.85;;;1.35;;
83443;SDS011;73374;41.170;-96.156;2024-03-23T04:18:43;5.43;;;1.20;;
83443;SDS011;73374;41.170;-96.156;2024-03-23T04:23:46;3.63;;;1.52;;
83443;SDS011;73374;41.170;-96.156;2024-03-23T04:28:48;2.35;;;1.50;;
83443;SDS011;73374;41.170;-96.156;2024-03-23T04:33:49;2.95;;;0.90;;
83443;SDS011;73374;41.170;-96.156;2024-03-23T04:38:52;3.28;;;1.45;;
83443;SDS011;73374;41.170;-96.156;2024-03-23T04:43:54;2.08;;;1.40;;
83443;SDS011;73374;41.170;-96.156;2024-03-23T04:48:56;3.25;;;1.17;;
83443;SDS011;73374;41.170;-96.156;2024-03-23T04:53:59;2.47;;;1.60;;
83443;SDS011;73374;41.170;-96.156;2024-03-23T04:59:01;2.83;;;1.50;;
83443;SDS011;73374;41.170;-96.156;2024-03-23T05:04:02;2.97;;;1.40;;
83443;SDS011;73374;41.170;-96.156;2024-03-23T05:09:06;1.80;;;1.10;;
83443;SDS011;73374;41.170;-96.156;2024-03-23T05:14:08;3.80;;;1.40;;
83443;SDS011;73374;41.170;-96.156;2024-03-23T05:19:09;4.65;;;2.00;;
83443;SDS011;73374;41.170;-96.156;2024-03-23T05:24:13;3.67;;;1.17;;
83443;SDS011;73374;41.170;-96.156;2024-03-23T05:29:14;1.70;;;1.17;;
83443;SDS011;73374;41.170;-96.156;2024-03-23T05:34:16;1.92;;;1.45;;
83443;SDS011;73374;41.170;-96.156;2024-03-23T05:39:19;2.67;;;1.45;;
83443;SDS011;73374;41.170;-96.156;2024-03-23T05:49:22;2.63;;;1.30;;
83443;SDS011;73374;41.170;-96.156;2024-03-23T05:54:26;2.92;;;1.55;;
83443;SDS011;73374;41.170;-96.156;2024-03-23T05:59:27;2.60;;;1.58;;
83443;SDS011;73374;41.170;-96.156;2024-03-23T06:04:29;2.38;;;1.52;;
83443;SDS011;73374;41.170;-96.156;2024-03-23T06:09:32;4.07;;;1.65;;
83443;SDS011;73374;41.170;-96.156;2024-03-23T06:14:34;3.47;;;1.60;;
83443;SDS011;73374;41.170;-96.156;2024-03-23T06:19:36;2.75;;;1.33;;
83443;SDS011;73374;41.170;-96.156;2024-03-23T06:24:39;3.03;;;1.40;;
83443;SDS011;73374;41.170;-96.156;2024-03-23T06:29:40;4.53;;;1.95;;
83443;SDS011;73374;41.170;-96.156;2024-03-23T06:34:42;4.80;;;1.85;;
83443;SDS011;73374;41.170;-96.156;2024-03-23T06:39:46;4.72;;;1.77;;
83443;SDS011;73374;41.170;-96.156;2024-03-23T06:49:48;4.22;;;1.38;;
83443;SDS011;73374;41.170;-96.156;2024-03-23T06:54:52;2.92;;;2.00;;
83443;SDS011;73374;41.170;-96.156;2024-03-23T06:59:53;4.57;;;2.30;;
83443;SDS011;73374;41.170;-96.156;2024-03-23T07:04:55;3.10;;;1.80;;
83443;SDS011;73374;41.170;-96.156;2024-03-23T07:09:58;3.30;;;2.00;;
83443;SDS011;73374;41.170;-96.156;2024-03-23T07:15:00;3.17;;;1.67;;
83443;SDS011;73374;41.170;-96.156;2024-03-23T07:20:01;3.15;;;1.50;;
83443;SDS011;73374;41.170;-96.156;2024-03-23T07:25:05;3.92;;;1.35;;
83443;SDS011;73374;41.170;-96.156;2024-03-23T07:30:07;3.42;;;1.42;;
83443;SDS011;73374;41.170;-96.156;2024-03-23T07:35:09;2.65;;;1.15;;
83443;SDS011;73374;41.170;-96.156;2024-03-23T07:40:13;2.45;;;1.50;;
83443;SDS011;73374;41.170;-96.156;2024-03-23T07:50:16;2.50;;;1.35;;
83443;SDS011;73374;41.170;-96.156;2024-03-23T07:55:19;6.75;;;1.90;;
83443;SDS011;73374;41.170;-96.156;2024-03-23T08:00:20;1.92;;;1.20;;
83443;SDS011;73374;41.170;-96.156;2024-03-23T08:05:22;1.60;;;1.05;;
83443;SDS011;73374;41.170;-96.156;2024-03-23T08:10:28;2.67;;;1.00;;
83443;SDS011;73374;41.170;-96.156;2024-03-23T08:15:30;2.53;;;1.17;;
83443;SDS011;73374;41.170;-96.156;2024-03-23T08:20:32;1.88;;;0.95;;
83443;SDS011;73374;41.170;-96.156;2024-03-23T08:25:35;2.03;;;1.33;;
83443;SDS011;73374;41.170;-96.156;2024-03-23T08:30:36;2.03;;;1.08;;
83443;SDS011;73374;41.170;-96.156;2024-03-23T08:35:38;1.77;;;0.65;;
83443;SDS011;73374;41.170;-96.156;2024-03-23T08:40:41;3.08;;;0.90;;
83443;SDS011;73374;41.170;-96.156;2024-03-23T08:45:43;3.80;;;1.20;;
83443;SDS011;73374;41.170;-96.156;2024-03-23T08:50:45;2.00;;;1.05;;
83443;SDS011;73374;41.170;-96.156;2024-03-23T08:55:54;3.13;;;0.80;;
83443;SDS011;73374;41.170;-96.156;2024-03-23T09:00:56;3.05;;;1.35;;
83443;SDS011;73374;41.170;-96.156;2024-03-23T09:06:06;1.17;;;0.63;;
83443;SDS011;73374;41.170;-96.156;2024-03-23T09:11:10;1.50;;;0.80;;
83443;SDS011;73374;41.170;-96.156;2024-03-23T09:16:12;1.52;;;0.77;;
83443;SDS011;73374;41.170;-96.156;2024-03-23T09:21:14;1.33;;;0.80;;
83443;SDS011;73374;41.170;-96.156;2024-03-23T09:26:17;3.88;;;1.10;;
83443;SDS011;73374;41.170;-96.156;2024-03-23T09:31:19;1.48;;;0.82;;
83443;SDS011;73374;41.170;-96.156;2024-03-23T09:36:20;3.10;;;0.93;;
83443;SDS011;73374;41.170;-96.156;2024-03-23T09:41:23;1.75;;;1.00;;
83443;SDS011;73374;41.170;-96.156;2024-03-23T09:46:25;0.93;;;0.60;;
83443;SDS011;73374;41.170;-96.156;2024-03-23T09:51:27;2.50;;;0.90;;
83443;SDS011;73374;41.170;-96.156;2024-03-23T09:56:30;1.95;;;0.77;;
83443;SDS011;73374;41.170;-96.156;2024-03-23T10:01:32;2.33;;;0.85;;
83443;SDS011;73374;41.170;-96.156;2024-03-23T10:06:34;5.38;;;0.90;;
83443;SDS011;73374;41.170;-96.156;2024-03-23T10:11:37;1.70;;;0.70;;
83443;SDS011;73374;41.170;-96.156;2024-03-23T10:16:39;0.75;;;0.43;;
83443;SDS011;73374;41.170;-96.156;2024-03-23T10:21:42;3.78;;;0.73;;
83443;SDS011;73374;41.170;-96.156;2024-03-23T10:27:01;0.47;;;0.17;;
83443;SDS011;73374;41.170;-96.156;2024-03-23T10:37:10;0.65;;;0.10;;
83443;SDS011;73374;41.170;-96.156;2024-03-23T10:42:14;1.00;;;0.68;;
83443;SDS011;73374;41.170;-96.156;2024-03-23T10:47:15;2.65;;;1.00;;
83443;SDS011;73374;41.170;-96.156;2024-03-23T10:52:17;1.23;;;0.40;;
83443;SDS011;73374;41.170;-96.156;2024-03-23T10:57:21;0.57;;;0.40;;
83443;SDS011;73374;41.170;-96.156;2024-03-23T11:02:28;1.33;;;0.80;;
83443;SDS011;73374;41.170;-96.156;2024-03-23T11:07:30;1.25;;;0.70;;
83443;SDS011;73374;41.170;-96.156;2024-03-23T11:12:34;0.57;;;0.35;;
83443;SDS011;73374;41.170;-96.156;2024-03-23T11:17:36;0.70;;;0.30;;
83443;SDS011;73374;41.170;-96.156;2024-03-23T11:22:38;0.57;;;0.30;;
83443;SDS011;73374;41.170;-96.156;2024-03-23T11:27:44;0.17;;;0.15;;
83443;SDS011;73374;41.170;-96.156;2024-03-23T11:32:46;1.17;;;0.68;;
83443;SDS011;73374;41.170;-96.156;2024-03-23T11:38:00;1.10;;;0.50;;
83443;SDS011;73374;41.170;-96.156;2024-03-23T11:43:05;1.55;;;1.10;;
83443;SDS011;73374;41.170;-96.156;2024-03-23T11:48:08;1.30;;;0.70;;
83443;SDS011;73374;41.170;-96.156;2024-03-23T11:53:14;1.33;;;0.50;;
83443;SDS011;73374;41.170;-96.156;2024-03-23T11:58:18;0.40;;;0.30;;
83443;SDS011;73374;41.170;-96.156;2024-03-23T12:03:21;3.30;;;1.15;;
83443;SDS011;73374;41.170;-96.156;2024-03-23T12:08:23;1.88;;;1.08;;
83443;SDS011;73374;41.170;-96.156;2024-03-23T12:13:26;4.10;;;0.68;;
83443;SDS011;73374;41.170;-96.156;2024-03-23T12:18:29;2.95;;;1.23;;
83443;SDS011;73374;41.170;-96.156;2024-03-23T12:23:31;0.60;;;0.50;;
83443;SDS011;73374;41.170;-96.156;2024-03-23T12:28:35;0.70;;;0.40;;
83443;SDS011;73374;41.170;-96.156;2024-03-23T12:33:36;0.45;;;0.38;;
83443;SDS011;73374;41.170;-96.156;2024-03-23T12:38:38;1.17;;;0.70;;
83443;SDS011;73374;41.170;-96.156;2024-03-23T12:43:41;1.05;;;0.47;;
83443;SDS011;73374;41.170;-96.156;2024-03-23T12:48:44;0.22;;;0.22;;
83443;SDS011;73374;41.170;-96.156;2024-03-23T12:53:46;0.85;;;0.60;;
83443;SDS011;73374;41.170;-96.156;2024-03-23T12:58:49;0.22;;;0.20;;
83443;SDS011;73374;41.170;-96.156;2024-03-23T13:03:50;0.82;;;0.65;;
83443;SDS011;73374;41.170;-96.156;2024-03-23T13:08:52;1.00;;;0.52;;
83443;SDS011;73374;41.170;-96.156;2024-03-23T13:13:56;1.55;;;0.73;;
83443;SDS011;73374;41.170;-96.156;2024-03-23T13:18:57;1.67;;;0.73;;
83443;SDS011;73374;41.170;-96.156;2024-03-23T13:23:59;2.50;;;0.95;;
83443;SDS011;73374;41.170;-96.156;2024-03-23T13:29:02;0.93;;;0.50;;
83443;SDS011;73374;41.170;-96.156;2024-03-23T13:34:04;0.90;;;0.60;;
83443;SDS011;73374;41.170;-96.156;2024-03-23T13:39:05;1.60;;;0.80;;
83443;SDS011;73374;41.170;-96.156;2024-03-23T13:44:09;3.63;;;0.90;;
83443;SDS011;73374;41.170;-96.156;2024-03-23T13:49:23;0.52;;;0.32;;
83443;SDS011;73374;41.170;-96.156;2024-03-23T13:54:26;1.42;;;0.85;;
83443;SDS011;73374;41.170;-96.156;2024-03-23T13:59:30;1.20;;;0.70;;
83443;SDS011;73374;41.170;-96.156;2024-03-23T14:04:31;1.00;;;0.50;;
83443;SDS011;73374;41.170;-96.156;2024-03-23T14:09:33;0.65;;;0.32;;
83443;SDS011;73374;41.170;-96.156;2024-03-23T14:14:36;2.03;;;0.55;;
83443;SDS011;73374;41.170;-96.156;2024-03-23T14:19:38;1.20;;;0.90;;
83443;SDS011;73374;41.170;-96.156;2024-03-23T14:24:39;1.90;;;1.13;;
83443;SDS011;73374;41.170;-96.156;2024-03-23T14:29:42;0.95;;;0.38;;
83443;SDS011;73374;41.170;-96.156;2024-03-23T14:34:47;4.15;;;1.00;;
83443;SDS011;73374;41.170;-96.156;2024-03-23T14:39:48;2.22;;;0.47;;
83443;SDS011;73374;41.170;-96.156;2024-03-23T14:44:51;0.93;;;0.50;;
83443;SDS011;73374;41.170;-96.156;2024-03-23T14:49:53;1.27;;;0.60;;
83443;SDS011;73374;41.170;-96.156;2024-03-23T14:54:55;1.38;;;1.00;;
83443;SDS011;73374;41.170;-96.156;2024-03-23T14:59:58;1.98;;;0.68;;
83443;SDS011;73374;41.170;-96.156;2024-03-23T15:05:00;1.30;;;0.60;;
83443;SDS011;73374;41.170;-96.156;2024-03-23T15:10:01;4.30;;;0.80;;
83443;SDS011;73374;41.170;-96.156;2024-03-23T15:15:05;6.13;;;1.23;;
83443;SDS011;73374;41.170;-96.156;2024-03-23T15:20:08;2.38;;;1.27;;
83443;SDS011;73374;41.170;-96.156;2024-03-23T15:30:13;2.00;;;1.10;;
83443;SDS011;73374;41.170;-96.156;2024-03-23T15:35:15;1.52;;;1.10;;
83443;SDS011;73374;41.170;-96.156;2024-03-23T15:40:16;1.95;;;0.88;;
83443;SDS011;73374;41.170;-96.156;2024-03-23T15:45:20;2.65;;;1.20;;
83443;SDS011;73374;41.170;-96.156;2024-03-23T15:50:21;1.73;;;0.88;;
83443;SDS011;73374;41.170;-96.156;2024-03-23T15:55:23;2.70;;;1.20;;
83443;SDS011;73374;41.170;-96.156;2024-03-23T16:00:26;2.40;;;1.48;;
83443;SDS011;73374;41.170;-96.156;2024-03-23T16:05:28;0.73;;;0.43;;
83443;SDS011;73374;41.170;-96.156;2024-03-23T16:10:30;2.33;;;1.20;;
83443;SDS011;73374;41.170;-96.156;2024-03-23T16:15:34;2.92;;;1.40;;
83443;SDS011;73374;41.170;-96.156;2024-03-23T16:20:35;1.70;;;1.23;;
83443;SDS011;73374;41.170;-96.156;2024-03-23T16:25:37;1.05;;;0.70;;
83443;SDS011;73374;41.170;-96.156;2024-03-23T16:30:50;3.33;;;0.75;;
83443;SDS011;73374;41.170;-96.156;2024-03-23T16:41:00;2.75;;;1.00;;
83443;SDS011;73374;41.170;-96.156;2024-03-23T16:46:05;1.58;;;0.75;;
83443;SDS011;73374;41.170;-96.156;2024-03-23T16:51:10;1.63;;;0.47;;
83443;SDS011;73374;41.170;-96.156;2024-03-23T16:56:12;3.05;;;1.30;;
83443;SDS011;73374;41.170;-96.156;2024-03-23T17:01:15;1.20;;;0.80;;
83443;SDS011;73374;41.170;-96.156;2024-03-23T17:06:17;0.80;;;0.60;;
83443;SDS011;73374;41.170;-96.156;2024-03-23T17:11:19;2.65;;;1.10;;
83443;SDS011;73374;41.170;-96.156;2024-03-23T17:16:22;1.15;;;0.70;;
83443;SDS011;73374;41.170;-96.156;2024-03-23T17:21:24;1.38;;;0.93;;
83443;SDS011;73374;41.170;-96.156;2024-03-23T17:26:26;0.82;;;0.50;;
83443;SDS011;73374;41.170;-96.156;2024-03-23T17:31:29;1.45;;;0.90;;
83443;SDS011;73374;41.170;-96.156;2024-03-23T17:36:31;1.00;;;0.45;;
83443;SDS011;73374;41.170;-96.156;2024-03-23T17:41:32;2.35;;;1.02;;
83443;SDS011;73374;41.170;-96.156;2024-03-23T17:46:36;1.83;;;1.20;;
83443;SDS011;73374;41.170;-96.156;2024-03-23T17:51:37;1.77;;;1.30;;
83443;SDS011;73374;41.170;-96.156;2024-03-23T17:56:39;1.42;;;0.93;;
83443;SDS011;73374;41.170;-96.156;2024-03-23T18:01:42;3.45;;;1.42;;
83443;SDS011;73374;41.170;-96.156;2024-03-23T18:06:44;1.73;;;0.88;;
83443;SDS011;73374;41.170;-96.156;2024-03-23T18:11:46;1.73;;;0.73;;
83443;SDS011;73374;41.170;-96.156;2024-03-23T18:16:49;3.40;;;0.70;;
83443;SDS011;73374;41.170;-96.156;2024-03-23T18:21:51;1.00;;;0.63;;
83443;SDS011;73374;41.170;-96.156;2024-03-23T18:26:52;1.58;;;0.60;;
83443;SDS011;73374;41.170;-96.156;2024-03-23T18:31:55;1.98;;;1.45;;
83443;SDS011;73374;41.170;-96.156;2024-03-23T18:36:57;1.73;;;0.90;;
83443;SDS011;73374;41.170;-96.156;2024-03-23T18:41:59;2.83;;;1.08;;
83443;SDS011;73374;41.170;-96.156;2024-03-23T18:47:02;0.95;;;0.70;;
83443;SDS011;73374;41.170;-96.156;2024-03-23T18:52:04;1.55;;;0.60;;
83443;SDS011;73374;41.170;-96.156;2024-03-23T18:57:06;1.80;;;0.90;;
83443;SDS011;73374;41.170;-96.156;2024-03-23T19:02:09;2.90;;;1.27;;
83443;SDS011;73374;41.170;-96.156;2024-03-23T19:07:10;3.10;;;1.02;;
83443;SDS011;73374;41.170;-96.156;2024-03-23T19:12:12;1.35;;;0.77;;
83443;SDS011;73374;41.170;-96.156;2024-03-23T19:17:15;4.20;;;1.02;;
83443;SDS011;73374;41.170;-96.156;2024-03-23T19:22:17;1.15;;;0.80;;
83443;SDS011;73374;41.170;-96.156;2024-03-23T19:27:19;1.33;;;0.80;;
83443;SDS011;73374;41.170;-96.156;2024-03-23T19:32:23;3.17;;;1.33;;
83443;SDS011;73374;41.170;-96.156;2024-03-23T19:37:24;1.15;;;0.70;;
83443;SDS011;73374;41.170;-96.156;2024-03-23T19:42:26;3.78;;;1.48;;
83443;SDS011;73374;41.170;-96.156;2024-03-23T19:47:29;3.28;;;2.17;;
83443;SDS011;73374;41.170;-96.156;2024-03-23T19:52:31;1.58;;;0.80;;
83443;SDS011;73374;41.170;-96.156;2024-03-23T19:57:33;2.13;;;0.95;;
83443;SDS011;73374;41.170;-96.156;2024-03-23T20:02:36;3.22;;;1.40;;
83443;SDS011;73374;41.170;-96.156;2024-03-23T20:07:38;2.03;;;1.23;;
83443;SDS011;73374;41.170;-96.156;2024-03-23T20:12:39;2.35;;;1.02;;
83443;SDS011;73374;41.170;-96.156;2024-03-23T20:17:42;2.78;;;1.67;;
83443;SDS011;73374;41.170;-96.156;2024-03-23T20:22:44;3.83;;;1.30;;
83443;SDS011;73374;41.170;-96.156;2024-03-23T20:27:46;1.80;;;0.98;;
83443;SDS011;73374;41.170;-96.156;2024-03-23T20:32:49;1.50;;;0.90;;
83443;SDS011;73374;41.170;-96.156;2024-03-23T20:37:50;2.72;;;0.77;;
83443;SDS011;73374;41.170;-96.156;2024-03-23T20:42:52;0.80;;;0.52;;
83443;SDS011;73374;41.170;-96.156;2024-03-23T20:47:56;3.42;;;1.65;;
83443;SDS011;73374;41.170;-96.156;2024-03-23T20:52:58;2.75;;;1.15;;
83443;SDS011;73374;41.170;-96.156;2024-03-23T20:58:00;2.38;;;1.10;;
83443;SDS011;73374;41.170;-96.156;2024-03-23T21:03:03;1.58;;;0.80;;
83443;SDS011;73374;41.170;-96.156;2024-03-23T21:08:05;1.42;;;1.08;;
83443;SDS011;73374;41.170;-96.156;2024-03-23T21:13:07;0.77;;;0.65;;
83443;SDS011;73374;41.170;-96.156;2024-03-23T21:18:10;3.70;;;1.33;;
83443;SDS011;73374;41.170;-96.156;2024-03-23T21:23:12;2.33;;;1.05;;
83443;SDS011;73374;41.170;-96.156;2024-03-23T21:28:13;2.20;;;1.02;;
83443;SDS011;73374;41.170;-96.156;2024-03-23T21:33:17;0.73;;;0.55;;
83443;SDS011;73374;41.170;-96.156;2024-03-23T21:38:19;1.77;;;1.02;;
83443;SDS011;73374;41.170;-96.156;2024-03-23T21:43:21;2.72;;;1.20;;
83443;SDS011;73374;41.170;-96.156;2024-03-23T21:48:24;1.00;;;0.60;;
83443;SDS011;73374;41.170;-96.156;2024-03-23T21:53:26;0.80;;;0.60;;
83443;SDS011;73374;41.170;-96.156;2024-03-23T21:58:28;2.28;;;1.10;;
83443;SDS011;73374;41.170;-96.156;2024-03-23T22:03:31;2.28;;;1.50;;
83443;SDS011;73374;41.170;-96.156;2024-03-23T22:08:33;3.47;;;0.77;;
83443;SDS011;73374;41.170;-96.156;2024-03-23T22:13:35;1.77;;;0.80;;
83443;SDS011;73374;41.170;-96.156;2024-03-23T22:18:47;2.25;;;1.02;;
83443;SDS011;73374;41.170;-96.156;2024-03-23T22:23:49;2.15;;;0.77;;
83443;SDS011;73374;41.170;-96.156;2024-03-23T22:28:50;2.58;;;1.55;;
83443;SDS011;73374;41.170;-96.156;2024-03-23T22:33:54;2.55;;;1.15;;
83443;SDS011;73374;41.170;-96.156;2024-03-23T22:38:55;3.38;;;1.08;;
83443;SDS011;73374;41.170;-96.156;2024-03-23T22:43:57;2.58;;;1.38;;
83443;SDS011;73374;41.170;-96.156;2024-03-23T22:49:00;1.63;;;1.00;;
83443;SDS011;73374;41.170;-96.156;2024-03-23T22:54:02;2.90;;;1.10;;
83443;SDS011;73374;41.170;-96.156;2024-03-23T22:59:03;1.63;;;0.98;;
83443;SDS011;73374;41.170;-96.156;2024-03-23T23:04:07;2.90;;;1.17;;
83443;SDS011;73374;41.170;-96.156;2024-03-23T23:09:08;1.25;;;0.60;;
83443;SDS011;73374;41.170;-96.156;2024-03-23T23:14:10;1.58;;;0.88;;
83443;SDS011;73374;41.170;-96.156;2024-03-23T23:19:13;2.28;;;1.35;;
83443;SDS011;73374;41.170;-96.156;2024-03-23T23:24:15;2.38;;;1.15;;
83443;SDS011;73374;41.170;-96.156;2024-03-23T23:29:17;5.25;;;1.05;;
83443;SDS011;73374;41.170;-96.156;2024-03-23T23:34:20;1.67;;;0.90;;
83443;SDS011;73374;41.170;-96.156;2024-03-23T23:39:22;0.82;;;0.60;;
83443;SDS011;73374;41.170;-96.156;2024-03-23T23:44:23;4.25;;;1.90;;
83443;SDS011;73374;41.170;-96.156;2024-03-23T23:49:27;1.83;;;0.85;;
83443;SDS011;73374;41.170;-96.156;2024-03-23T23:54:28;2.90;;;1.05;;
83443;SDS011;73374;41.170;-96.156;2024-03-23T23:59:30;1.25;;;1.10;;
